GMAD/AGA METAR and TAF weather

Enter ICAO airport designator
Station Type Date Time Source
GMAD METAR 2019/08/24 09:00 UTC NOAA

GMAD 240900Z 27004KT 220V340 CAVOK 31/17 Q1012 NOSIG


Station Type Date Time Source
GMAD Decoded METAR 2019/08/24 09:00 UTC NOAA

Station name not available
Aug 24, 2019 - 05:00 AM EDT / 2019.08.24 0900 UTC
Wind: from the W (270 degrees) at 5 MPH (4 KT) (direction variable):0
Visibility: greater than 7 mile(s):0
Temperature: 87 F (31 C)
Dew Point: 62 F (17 C)
Relative Humidity: 43%
Pressure (altimeter): 29.88 in. Hg (1012 hPa)
ob: GMAD 240900Z 27004KT 220V340 CAVOK 31/17 Q1012 NOSIG
cycle: 9

Station Type Date Time Source
GMAD TAF 2019/08/24 06:36 UTC NOAA

TAF GMAD 240500Z 2406/2512 09005KT 8000 FEW023
BECMG 2412/2414 28011KT
BECMG 2419/2422 10006KT

Example: see airport list